ADDS METAR Data INFO
IDs: Format: Raw Decoded Include TAF

Data at: 0717 UTC 19 Oct 2017

KVDI 190655Z AUTO 03004KT 10SM CLR 13/11 A3023 RMK AO2
KVDI 190635Z AUTO 03004KT 10SM CLR 13/11 A3023 RMK AO2
KVDI 190615Z AUTO 05004KT 10SM CLR 13/11 A3024 RMK AO2
KVDI 190555Z AUTO 04004KT 10SM CLR 14/12 A3024 RMK AO2
KVDI 190535Z AUTO 04004KT 10SM CLR 15/12 A3025 RMK AO2
KVDI 190515Z AUTO 03005KT 10SM CLR 15/12 A3025 RMK AO2
KVDI 190455Z AUTO 04004KT 10SM CLR 15/12 A3025 RMK AO2
KVDI 190435Z AUTO 05004KT 10SM CLR 15/12 A3026 RMK AO2
KVDI 190415Z AUTO 05004KT 10SM CLR 15/12 A3027 RMK AO2
KVDI 190355Z AUTO 05004KT 10SM CLR 15/12 A3027 RMK AO2
KVDI 190335Z AUTO 06004KT 10SM CLR 16/12 A3027 RMK AO2
KVDI 190315Z AUTO 05004KT 10SM CLR 16/12 A3028 RMK AO2
KVDI 190255Z AUTO 04004KT 10SM CLR 16/12 A3027 RMK AO2
KVDI 190235Z AUTO 03004KT 10SM CLR 16/12 A3027 RMK AO2
KVDI 190215Z AUTO 03004KT 10SM CLR 16/12 A3027 RMK AO2
KVDI 190155Z AUTO 04004KT 10SM CLR 17/12 A3027 RMK AO2
KVDI 190135Z AUTO 03005KT 10SM CLR 17/12 A3027 RMK AO2
KVDI 190115Z AUTO 03005KT 10SM CLR 17/12 A3026 RMK AO2
KVDI 190055Z AUTO 03005KT 10SM CLR 17/12 A3026 RMK AO2
KVDI 190035Z AUTO 03004KT 10SM CLR 18/12 A3025 RMK AO2
KVDI 190015Z AUTO 03005KT 10SM CLR 18/12 A3025 RMK AO2
KVDI 182355Z AUTO 03004KT 10SM CLR 18/12 A3025 RMK AO2
KVDI 182335Z AUTO 02004KT 10SM CLR 18/12 A3024 RMK AO2
KVDI 182315Z AUTO 03004KT 10SM CLR 19/12 A3024 RMK AO2
KVDI 182255Z AUTO 03004KT 10SM CLR 20/12 A3023 RMK AO2
KVDI 182235Z AUTO 03004KT 10SM CLR 21/12 A3023 RMK AO2
KVDI 182215Z AUTO 05003KT 10SM CLR 23/12 A3023 RMK AO2
KVDI 182155Z AUTO 06006KT 10SM CLR 23/11 A3023 RMK AO2
KVDI 182135Z AUTO 05006KT 10SM CLR 24/11 A3022 RMK AO2
KVDI 182115Z AUTO 05005KT 10SM CLR 24/10 A3022 RMK AO2
KVDI 182055Z AUTO 06006KT 10SM CLR 25/10 A3022 RMK AO2
KVDI 182035Z AUTO 07007KT 10SM CLR 25/10 A3022 RMK AO2
KVDI 182015Z AUTO 07008KT 040V110 10SM CLR 25/10 A3023 RMK AO2
KVDI 181955Z AUTO 08009KT 10SM CLR 25/10 A3023 RMK AO2
KVDI 181935Z AUTO 04006KT 10SM CLR 25/10 A3023 RMK AO2
KVDI 181915Z AUTO 07005KT 10SM CLR 25/10 A3023 RMK AO2
KVDI 181855Z AUTO 06010G15KT 10SM CLR 25/10 A3023 RMK AO2
KVDI 181835Z AUTO 06006KT 10SM CLR 25/10 A3024 RMK AO2
KVDI 181815Z AUTO 04007KT 010V080 10SM CLR 24/10 A3025 RMK AO2
KVDI 181755Z AUTO 04007KT 020V080 10SM CLR 23/10 A3026 RMK AO2
KVDI 181735Z AUTO 05007KT 020V080 10SM CLR 23/10 A3027 RMK AO2
KVDI 181715Z AUTO 06006KT 10SM CLR 22/11 A3028 RMK AO2
KVDI 181655Z AUTO 05007KT 020V090 10SM CLR 22/11 A3029 RMK AO2
KVDI 181635Z AUTO 06006G14KT 10SM CLR 22/11 A3030 RMK AO2
KVDI 181615Z AUTO 05007KT 10SM CLR 21/11 A3030 RMK AO2
KVDI 181555Z AUTO 07008KT 10SM CLR 21/11 A3031 RMK AO2
KVDI 181535Z AUTO 05008KT 10SM CLR 20/11 A3031 RMK AO2
KVDI 181515Z AUTO 06008KT 10SM CLR 20/10 A3031 RMK AO2
KVDI 181455Z AUTO 05007KT 10SM CLR 18/10 A3031 RMK AO2
KVDI 181435Z AUTO 04009KT 10SM CLR 18/09 A3032 RMK AO2
KVDI 181415Z AUTO 05006KT 10SM CLR 17/08 A3032 RMK AO2
KVDI 181355Z AUTO 04009KT 10SM CLR 15/08 A3031 RMK AO2
KVDI 181335Z AUTO 05007KT 10SM CLR 15/08 A3031 RMK AO2
KVDI 181315Z AUTO 05006KT 10SM CLR 13/08 A3030 RMK AO2
KVDI 181255Z AUTO 02005KT 10SM CLR 12/08 A3030 RMK AO2
KVDI 181235Z AUTO 03006KT 10SM CLR 10/07 A3028 RMK AO2
KVDI 181215Z AUTO 02005KT 10SM CLR 10/07 A3028 RMK AO2
KVDI 181155Z AUTO 02005KT 10SM CLR 09/07 A3028 RMK AO2
KVDI 181135Z AUTO 03004KT 10SM CLR 09/07 A3028 RMK AO2
KVDI 181115Z AUTO 03005KT 10SM CLR 09/07 A3027 RMK AO2
KVDI 181055Z AUTO 03004KT 10SM CLR 09/07 A3027 RMK AO2
KVDI 181035Z AUTO 03006KT 10SM CLR 09/07 A3027 RMK AO2
KVDI 181015Z AUTO 03006KT 10SM CLR 09/07 A3027 RMK AO2
KVDI 180955Z AUTO 03005KT 10SM CLR 10/07 A3026 RMK AO2
KVDI 180935Z AUTO 02006KT 10SM CLR 10/07 A3025 RMK AO2
KVDI 180915Z AUTO 03005KT 10SM CLR 10/07 A3025 RMK AO2
KVDI 180855Z AUTO 04004KT 10SM CLR 10/07 A3025 RMK AO2
KVDI 180835Z AUTO 03006KT 10SM CLR 10/07 A3025 RMK AO2
KVDI 180815Z AUTO 03005KT 10SM CLR 10/07 A3025 RMK AO2
KVDI 180755Z AUTO 02003KT 10SM CLR 10/07 A3025 RMK AO2
KVDI 180735Z AUTO 02004KT 10SM CLR 10/07 A3025 RMK AO2
KVDI 180715Z AUTO 02003KT 10SM CLR 10/07 A3025 RMK AO2
KVDI 180655Z AUTO 04004KT 10SM CLR 11/07 A3025 RMK AO2 LTG DSNT SW
KVDI 180635Z AUTO 04004KT 10SM CLR 11/07 A3025 RMK AO2
KVDI 180615Z AUTO 05005KT 10SM CLR 11/07 A3025 RMK AO2
KVDI 180555Z AUTO 04005KT 10SM CLR 11/07 A3025 RMK AO2
KVDI 180535Z AUTO 04004KT 10SM CLR 11/07 A3025 RMK AO2
KVDI 180515Z AUTO 04005KT 10SM CLR 11/07 A3026 RMK AO2
KVDI 180455Z AUTO 04004KT 10SM CLR 11/07 A3026 RMK AO2
KVDI 180435Z AUTO 04004KT 10SM CLR 12/07 A3026 RMK AO2
KVDI 180415Z AUTO 04004KT 10SM CLR 12/07 A3027 RMK AO2
KVDI 180355Z AUTO 05004KT 10SM CLR 12/07 A3027 RMK AO2
KVDI 180335Z AUTO 06004KT 10SM CLR 12/07 A3027 RMK AO2
KVDI 180315Z AUTO 05004KT 10SM CLR 13/07 A3027 RMK AO2
KVDI 180255Z AUTO 05005KT 10SM CLR 13/07 A3027 RMK AO2
KVDI 180235Z AUTO 05005KT 10SM CLR 13/08 A3027 RMK AO2
KVDI 180215Z AUTO 05004KT 10SM CLR 13/08 A3027 RMK AO2
KVDI 180155Z AUTO 06003KT 10SM CLR 13/08 A3026 RMK AO2
KVDI 180135Z AUTO 06003KT 10SM CLR 14/08 A3026 RMK AO2
KVDI 180115Z AUTO 00000KT 10SM CLR 14/08 A3025 RMK AO2
KVDI 180055Z AUTO 06003KT 10SM CLR 14/08 A3025 RMK AO2
KVDI 180035Z AUTO 05005KT 10SM CLR 15/08 A3025 RMK AO2
KVDI 180015Z AUTO 05004KT 10SM CLR 15/08 A3024 RMK AO2
KVDI 172355Z AUTO 06005KT 10SM CLR 16/07 A3023 RMK AO2
KVDI 172335Z AUTO 06005KT 10SM CLR 16/07 A3023 RMK AO2
KVDI 172315Z AUTO 05003KT 10SM CLR 17/07 A3022 RMK AO2
KVDI 172255Z AUTO 05006KT 10SM CLR 18/07 A3021 RMK AO2
KVDI 172235Z AUTO 06006KT 10SM CLR 19/06 A3021 RMK AO2
KVDI 172215Z AUTO 07007KT 10SM CLR 20/06 A3021 RMK AO2
KVDI 172155Z AUTO 06010G14KT 10SM CLR 21/06 A3021 RMK AO2
KVDI 172135Z AUTO 07010KT 10SM CLR 21/06 A3021 RMK AO2
KVDI 172115Z AUTO 05009G14KT 10SM CLR 22/06 A3021 RMK AO2
KVDI 172055Z AUTO 04007KT 10SM CLR 22/06 A3021 RMK AO2
KVDI 172035Z AUTO 04009G15KT 10SM CLR 22/05 A3021 RMK AO2
KVDI 172015Z AUTO 06010G14KT 10SM CLR 22/06 A3021 RMK AO2
KVDI 171955Z AUTO 06009G15KT 10SM CLR 22/05 A3022 RMK AO2
KVDI 171935Z AUTO 06008G16KT 030V090 10SM CLR 22/05 A3022 RMK AO2